Nearby METAR Reports

Aktualna pogoda na lotniskach (dane METAR)

 

EPGD - Gdansk/Rebiechow, Poland
Distance from station: ENE 27mi, 44km
Updated: Sat, 16-Feb-2019 10:00pm PST
Mostly Cloudy
Mostly Cloudy
 Wind from W
Wind: W 9 mph , 15 km/h
Temperature: 43°F , 6°C
Wind Chill: 38°F , 3°C
Dew Point: 39°F , 4°C
Humidity: 87%
Barometer: 30.12 inHg , 1020 hPa
Clouds: Mostly Cloudy
Visibility: 6 miles , 10 km
Cloud details: Mostly Cloudy 2700 ft
2019/02/17 06:00 EPGD 170600Z 28008KT 9999 BKN027 06/04 Q1020
EPSC - Szczecin/Golenio, Poland
Distance from station: WSW 128mi, 205km
Updated: Sat, 16-Feb-2019 10:00pm PST
Overcast
Overcast
 Wind from SE
Wind: SE 3 mph , 6 km/h
Temperature: 39°F , 4°C
Dew Point: 34°F , 1°C
Humidity: 81%
Barometer: 30.21 inHg , 1023 hPa
Clouds: Overcast
Visibility: 6 miles , 10 km
Cloud details: Overcast 2400 ft
2019/02/17 06:00 EPSC 170600Z 14003KT 090V170 9999 OVC024 04/01 Q1023
 
EPPO - Poznan/Lawica, Poland
Distance from station: SSW 131mi, 210km
Updated: Sat, 16-Feb-2019 10:00pm PST
Clear
Clear
 Wind from WSW
Wind: WSW 2 mph , 4 km/h
Temperature: 32°F , 0°C
Dew Point: 28°F , -2°C
Humidity: 87%
Barometer: 30.27 inHg , 1025 hPa
Summary: Clear
Visibility: greater than 7 miles , 10 km
2019/02/17 06:00 EPPO 170600Z 24002KT CAVOK 00/M02 Q1025 R10/29//95
EPLL - Lodz/Lublinek, Poland
Distance from station: SSE 184mi, 296km
Updated: Sat, 16-Feb-2019 10:00pm PST
Partly Cloudy
Partly Cloudy
 Wind from calm
Wind: Calm
Temperature: 30°F , -1°C
Dew Point: 27°F , -3°C
Humidity: 86%
Barometer: 30.24 inHg , 1024 hPa
Clouds: Partly Cloudy
Visibility: 4 miles , 6 km
2019/02/17 06:00 EPLL 170600Z 00000KT 6000 NSC M01/M03 Q1024
 
EPWA - Warsaw/Okecie, Poland
Distance from station: SE 191mi, 307km
Updated: Sat, 16-Feb-2019 10:00pm PST
Clear
Clear
 Wind from W
Wind: W 7 mph , 11 km/h
Temperature: 37°F , 3°C
Wind Chill: 32°F , 0°C
Dew Point: 30°F , -1°C
Humidity: 75%
Barometer: 30.21 inHg , 1023 hPa
Summary: Clear
Visibility: greater than 7 miles , 10 km
2019/02/17 06:00 EPWA 170600Z 27006KT 240V300 CAVOK 03/M01 Q1023 NOSIG
EPWR - Wroclaw/Strachow, Poland
Distance from station: S 219mi, 352km
Updated: Sat, 16-Feb-2019 10:00pm PST
Clear
Clear
 Wind from varies
Wind: varies 1 mph , 2 km/h
Temperature: 27°F , -3°C
Dew Point: 25°F , -4°C
Humidity: 93%
Barometer: 30.3 inHg , 1026 hPa
Summary: Clear
Visibility: greater than 7 miles , 10 km
2019/02/17 06:00 EPWR 170600Z VRB01KT CAVOK M03/M04 Q1026

Metar display script from Saratoga-Weather.org